Aeroporto :
LOGIN :

Iscrizione | Disclaimer

   EN    FR    IT 

 










Sommario :    VFR   VFR Marginale   IFR   IFR Intensivo   IFR Molto Intensivo
Visibilità : 
Base nubi : 
>= 8 km
>= 3000ft
5 / 8 km
1000 / 3000 ft
1500m / 5 km
500 / 1000 ft
800 / 1500m
200 / 500 ft
< 800m
< 200 ft
Simboli :   Temporali  Nebbia  Neve Forte  Precipitazioni Forti  Vento > 20 kt
SIGMETs :   Varie  Temporali  Ghiacco  Turbolenza  Onda orograficha  Ceneri Vulcaniche






- Altitudine del aeroporto : 55 ft
- Codice IATA : DSA


EGCN - Robin Hood Doncaster Sheffield

ULTIMO METAR :
  • 031750Z 28009KT 9999 FEW046 10/02 Q1018

METARs OBSOLETI :
  • 031720Z 27009KT 9999 BKN046 11/02 Q1017
  • 031650Z 26008KT 230V300 9999 BKN048 11/02 Q1017
  • 031620Z 24009KT 9999 BKN048 11/01 Q1017
  • 031550Z 25009KT 180V290 9999 BKN044 11/02 Q1017
  • 031520Z 25005KT 9999 BKN044 11/02 Q1017

TAF TAF EGCN
Valido dal 03 a 18 ore il 04 a 18 ore UTC


031655Z 0318/0418 24010KT 9999 SCT025
PROB30
TEMPO 0318/0321 9000 -SHRA
BECMG 0321/0324 18008KT
PROB30 0403/0407 9000



MetMap, La meteo Aeronautica in un colpo d'occhio ! - Copyright ORBIFLY Dicembre 2007 - Disclaimer

ORBIFLY MET'MAP TEAM :

Programmazione e sviluppo : Alexandra Zaïnal
Concezione : Baudouin d'Aumeries
Aiuto per la programmazione : Marc-Olivier Méhu
Supporto tecnico e logistico : Manuel Goepfert
Aiuto per la traduzione : Arnaldo La Scala

Contatto : metmap@orbifly.com




FONTI E CREDITI :

   NOAA